sensor_id;sensor_type;location;lat;lon;timestamp;temperature;humidity
921;DHT22;447;51.332;6.778;2023-11-21T00:01:03;12.20;99.90
921;DHT22;447;51.332;6.778;2023-11-21T00:03:32;12.20;99.90
921;DHT22;447;51.332;6.778;2023-11-21T00:05:58;12.20;99.90
921;DHT22;447;51.332;6.778;2023-11-21T00:08:24;12.20;99.90
921;DHT22;447;51.332;6.778;2023-11-21T00:10:50;12.10;99.90
921;DHT22;447;51.332;6.778;2023-11-21T00:13:19;12.10;99.90
921;DHT22;447;51.332;6.778;2023-11-21T00:15:46;12.10;99.90
921;DHT22;447;51.332;6.778;2023-11-21T00:18:12;12.10;99.90
921;DHT22;447;51.332;6.778;2023-11-21T00:20:39;12.10;99.90
921;DHT22;447;51.332;6.778;2023-11-21T00:23:08;12.10;99.90
921;DHT22;447;51.332;6.778;2023-11-21T00:25:38;12.10;99.90
921;DHT22;447;51.332;6.778;2023-11-21T00:28:04;12.10;99.90
921;DHT22;447;51.332;6.778;2023-11-21T00:30:32;12.10;99.90
921;DHT22;447;51.332;6.778;2023-11-21T00:33:01;12.10;99.90
921;DHT22;447;51.332;6.778;2023-11-21T00:35:27;12.10;99.90
921;DHT22;447;51.332;6.778;2023-11-21T00:37:53;12.10;99.90
921;DHT22;447;51.332;6.778;2023-11-21T00:40:22;12.10;99.90
921;DHT22;447;51.332;6.778;2023-11-21T00:42:48;12.10;99.90
921;DHT22;447;51.332;6.778;2023-11-21T00:45:14;12.10;99.90
921;DHT22;447;51.332;6.778;2023-11-21T00:47:40;12.10;99.90
921;DHT22;447;51.332;6.778;2023-11-21T00:50:07;12.10;99.90
921;DHT22;447;51.332;6.778;2023-11-21T00:52:33;12.10;99.90
921;DHT22;447;51.332;6.778;2023-11-21T00:54:59;12.10;99.90
921;DHT22;447;51.332;6.778;2023-11-21T00:57:26;12.10;99.90
921;DHT22;447;51.332;6.778;2023-11-21T00:59:52;12.20;99.90
921;DHT22;447;51.332;6.778;2023-11-21T01:02:20;12.20;99.90
921;DHT22;447;51.332;6.778;2023-11-21T01:04:51;12.20;99.90
921;DHT22;447;51.332;6.778;2023-11-21T01:07:20;12.10;99.90
921;DHT22;447;51.332;6.778;2023-11-21T01:09:49;12.10;99.90
921;DHT22;447;51.332;6.778;2023-11-21T01:12:15;12.10;99.90
921;DHT22;447;51.332;6.778;2023-11-21T01:14:43;12.10;99.90
921;DHT22;447;51.332;6.778;2023-11-21T01:17:12;12.00;99.90
921;DHT22;447;51.332;6.778;2023-11-21T01:19:41;12.10;99.90
921;DHT22;447;51.332;6.778;2023-11-21T01:22:06;12.10;99.90
921;DHT22;447;51.332;6.778;2023-11-21T01:24:32;12.10;99.90
921;DHT22;447;51.332;6.778;2023-11-21T01:26:58;12.10;99.90
921;DHT22;447;51.332;6.778;2023-11-21T01:29:27;12.10;99.90
921;DHT22;447;51.332;6.778;2023-11-21T01:31:55;12.10;99.90
921;DHT22;447;51.332;6.778;2023-11-21T01:34:23;12.10;99.90
921;DHT22;447;51.332;6.778;2023-11-21T01:36:49;12.10;99.90
921;DHT22;447;51.332;6.778;2023-11-21T01:39:15;12.10;99.90
921;DHT22;447;51.332;6.778;2023-11-21T01:41:42;12.10;99.90
921;DHT22;447;51.332;6.778;2023-11-21T01:44:10;12.00;99.90
921;DHT22;447;51.332;6.778;2023-11-21T01:46:41;12.00;99.90
921;DHT22;447;51.332;6.778;2023-11-21T01:49:07;12.00;99.90
921;DHT22;447;51.332;6.778;2023-11-21T01:51:36;12.00;99.90
921;DHT22;447;51.332;6.778;2023-11-21T01:54:03;11.90;99.90
921;DHT22;447;51.332;6.778;2023-11-21T01:56:31;12.00;99.90
921;DHT22;447;51.332;6.778;2023-11-21T01:58:57;11.90;99.90
921;DHT22;447;51.332;6.778;2023-11-21T02:01:24;11.90;99.90
921;DHT22;447;51.332;6.778;2023-11-21T02:03:54;11.90;99.90
921;DHT22;447;51.332;6.778;2023-11-21T02:06:21;11.90;99.90
921;DHT22;447;51.332;6.778;2023-11-21T02:08:48;11.90;99.90
921;DHT22;447;51.332;6.778;2023-11-21T02:11:21;11.90;99.90
921;DHT22;447;51.332;6.778;2023-11-21T02:13:47;11.90;99.90
921;DHT22;447;51.332;6.778;2023-11-21T02:16:17;11.80;99.90
921;DHT22;447;51.332;6.778;2023-11-21T02:18:43;11.80;99.90
921;DHT22;447;51.332;6.778;2023-11-21T02:21:10;11.80;99.90
921;DHT22;447;51.332;6.778;2023-11-21T02:23:38;11.80;99.90
921;DHT22;447;51.332;6.778;2023-11-21T02:26:08;11.90;99.90
921;DHT22;447;51.332;6.778;2023-11-21T02:28:36;11.90;99.90
921;DHT22;447;51.332;6.778;2023-11-21T02:31:05;11.90;99.90
921;DHT22;447;51.332;6.778;2023-11-21T02:33:32;11.90;99.90
921;DHT22;447;51.332;6.778;2023-11-21T02:36:02;11.90;99.90
921;DHT22;447;51.332;6.778;2023-11-21T02:38:28;11.90;99.90
921;DHT22;447;51.332;6.778;2023-11-21T02:40:55;12.00;99.90
921;DHT22;447;51.332;6.778;2023-11-21T02:43:24;12.00;99.90
921;DHT22;447;51.332;6.778;2023-11-21T02:45:50;12.00;99.90
921;DHT22;447;51.332;6.778;2023-11-21T02:48:16;12.00;99.90
921;DHT22;447;51.332;6.778;2023-11-21T02:50:42;12.00;99.90
921;DHT22;447;51.332;6.778;2023-11-21T02:53:09;11.90;99.90
921;DHT22;447;51.332;6.778;2023-11-21T02:55:36;12.00;99.90
921;DHT22;447;51.332;6.778;2023-11-21T02:58:03;12.00;99.90
921;DHT22;447;51.332;6.778;2023-11-21T03:00:32;11.90;99.90
921;DHT22;447;51.332;6.778;2023-11-21T03:02:59;11.90;99.90
921;DHT22;447;51.332;6.778;2023-11-21T03:05:26;11.90;99.90
921;DHT22;447;51.332;6.778;2023-11-21T03:07:55;11.90;99.90
921;DHT22;447;51.332;6.778;2023-11-21T03:10:25;11.80;99.90
921;DHT22;447;51.332;6.778;2023-11-21T03:12:51;11.80;99.90
921;DHT22;447;51.332;6.778;2023-11-21T03:15:17;11.80;99.90
921;DHT22;447;51.332;6.778;2023-11-21T03:17:43;11.80;99.90
921;DHT22;447;51.332;6.778;2023-11-21T03:20:10;11.80;99.90
921;DHT22;447;51.332;6.778;2023-11-21T03:22:37;11.80;99.90
921;DHT22;447;51.332;6.778;2023-11-21T03:25:04;11.80;99.90
921;DHT22;447;51.332;6.778;2023-11-21T03:27:30;11.80;99.90
921;DHT22;447;51.332;6.778;2023-11-21T03:29:57;11.80;99.90
921;DHT22;447;51.332;6.778;2023-11-21T03:32:23;11.90;99.90
921;DHT22;447;51.332;6.778;2023-11-21T03:34:56;11.80;99.90
921;DHT22;447;51.332;6.778;2023-11-21T03:37:23;11.80;99.90
921;DHT22;447;51.332;6.778;2023-11-21T03:39:50;11.80;99.90
921;DHT22;447;51.332;6.778;2023-11-21T03:42:16;11.80;99.90
921;DHT22;447;51.332;6.778;2023-11-21T03:44:44;11.80;99.90
921;DHT22;447;51.332;6.778;2023-11-21T03:47:13;11.80;99.90
921;DHT22;447;51.332;6.778;2023-11-21T03:49:40;11.80;99.90
921;DHT22;447;51.332;6.778;2023-11-21T03:52:06;11.80;99.90
921;DHT22;447;51.332;6.778;2023-11-21T03:54:33;11.80;99.90
921;DHT22;447;51.332;6.778;2023-11-21T03:57:00;11.80;99.90
921;DHT22;447;51.332;6.778;2023-11-21T03:59:26;11.80;99.90
921;DHT22;447;51.332;6.778;2023-11-21T04:01:53;11.70;99.90
921;DHT22;447;51.332;6.778;2023-11-21T04:04:20;11.70;99.90
921;DHT22;447;51.332;6.778;2023-11-21T04:06:46;11.70;99.90
921;DHT22;447;51.332;6.778;2023-11-21T04:09:16;11.70;99.90
921;DHT22;447;51.332;6.778;2023-11-21T04:11:42;11.70;99.90
921;DHT22;447;51.332;6.778;2023-11-21T04:14:09;11.70;99.90
921;DHT22;447;51.332;6.778;2023-11-21T04:16:35;11.70;99.90
921;DHT22;447;51.332;6.778;2023-11-21T04:19:03;11.70;99.90
921;DHT22;447;51.332;6.778;2023-11-21T04:21:29;11.70;99.90
921;DHT22;447;51.332;6.778;2023-11-21T04:23:59;11.70;99.90
921;DHT22;447;51.332;6.778;2023-11-21T04:26:25;11.70;99.90
921;DHT22;447;51.332;6.778;2023-11-21T04:28:54;11.70;99.90
921;DHT22;447;51.332;6.778;2023-11-21T04:31:20;11.70;99.90
921;DHT22;447;51.332;6.778;2023-11-21T04:33:49;11.70;99.90
921;DHT22;447;51.332;6.778;2023-11-21T04:36:16;11.70;99.90
921;DHT22;447;51.332;6.778;2023-11-21T04:38:42;11.80;99.90
921;DHT22;447;51.332;6.778;2023-11-21T04:41:10;11.80;99.90
921;DHT22;447;51.332;6.778;2023-11-21T04:43:37;11.80;99.90
921;DHT22;447;51.332;6.778;2023-11-21T04:46:03;11.80;99.90
921;DHT22;447;51.332;6.778;2023-11-21T04:48:33;11.80;99.90
921;DHT22;447;51.332;6.778;2023-11-21T04:50:59;11.80;99.90
921;DHT22;447;51.332;6.778;2023-11-21T04:53:28;11.80;99.90
921;DHT22;447;51.332;6.778;2023-11-21T04:55:58;11.70;99.90
921;DHT22;447;51.332;6.778;2023-11-21T04:58:24;11.70;99.90
921;DHT22;447;51.332;6.778;2023-11-21T05:00:50;11.70;99.90
921;DHT22;447;51.332;6.778;2023-11-21T05:03:16;11.60;99.90
921;DHT22;447;51.332;6.778;2023-11-21T05:05:42;11.60;99.90
921;DHT22;447;51.332;6.778;2023-11-21T05:08:08;11.60;99.90
921;DHT22;447;51.332;6.778;2023-11-21T05:10:38;11.60;99.90
921;DHT22;447;51.332;6.778;2023-11-21T05:13:06;11.60;99.90
921;DHT22;447;51.332;6.778;2023-11-21T05:15:36;11.60;99.90
921;DHT22;447;51.332;6.778;2023-11-21T05:18:03;11.60;99.90
921;DHT22;447;51.332;6.778;2023-11-21T05:20:35;11.60;99.90
921;DHT22;447;51.332;6.778;2023-11-21T05:23:05;11.60;99.90
921;DHT22;447;51.332;6.778;2023-11-21T05:25:31;11.60;99.90
921;DHT22;447;51.332;6.778;2023-11-21T05:27:57;11.60;99.90
921;DHT22;447;51.332;6.778;2023-11-21T05:30:27;11.60;99.90
921;DHT22;447;51.332;6.778;2023-11-21T05:32:57;11.60;99.90
921;DHT22;447;51.332;6.778;2023-11-21T05:35:25;11.60;99.90
921;DHT22;447;51.332;6.778;2023-11-21T05:37:56;11.60;99.90
921;DHT22;447;51.332;6.778;2023-11-21T05:40:22;11.60;99.90
921;DHT22;447;51.332;6.778;2023-11-21T05:42:51;11.60;99.90
921;DHT22;447;51.332;6.778;2023-11-21T05:45:17;11.60;99.90
921;DHT22;447;51.332;6.778;2023-11-21T05:47:47;11.50;99.90
921;DHT22;447;51.332;6.778;2023-11-21T05:50:17;11.50;99.90
921;DHT22;447;51.332;6.778;2023-11-21T05:52:45;11.60;99.90
921;DHT22;447;51.332;6.778;2023-11-21T05:55:11;11.50;99.90
921;DHT22;447;51.332;6.778;2023-11-21T05:57:39;11.50;99.90
921;DHT22;447;51.332;6.778;2023-11-21T06:00:11;11.60;99.90
921;DHT22;447;51.332;6.778;2023-11-21T06:02:46;11.60;99.90
921;DHT22;447;51.332;6.778;2023-11-21T06:05:13;11.60;99.90
921;DHT22;447;51.332;6.778;2023-11-21T06:07:39;11.60;99.90
921;DHT22;447;51.332;6.778;2023-11-21T06:10:07;11.60;99.90
921;DHT22;447;51.332;6.778;2023-11-21T06:12:38;11.60;99.90
921;DHT22;447;51.332;6.778;2023-11-21T06:15:06;11.60;99.90
921;DHT22;447;51.332;6.778;2023-11-21T06:17:36;11.50;99.90
921;DHT22;447;51.332;6.778;2023-11-21T06:20:04;11.50;99.90
921;DHT22;447;51.332;6.778;2023-11-21T06:22:38;11.60;99.90
921;DHT22;447;51.332;6.778;2023-11-21T06:25:07;11.50;99.90
921;DHT22;447;51.332;6.778;2023-11-21T06:27:41;11.50;99.90
921;DHT22;447;51.332;6.778;2023-11-21T06:30:08;11.50;99.90
921;DHT22;447;51.332;6.778;2023-11-21T06:32:36;11.50;99.90
921;DHT22;447;51.332;6.778;2023-11-21T06:35:05;11.50;99.90
921;DHT22;447;51.332;6.778;2023-11-21T06:37:32;11.50;99.90
921;DHT22;447;51.332;6.778;2023-11-21T06:39:59;11.50;99.90
921;DHT22;447;51.332;6.778;2023-11-21T06:42:26;11.60;99.90
921;DHT22;447;51.332;6.778;2023-11-21T06:44:57;11.60;99.90
921;DHT22;447;51.332;6.778;2023-11-21T06:47:24;11.60;99.90
921;DHT22;447;51.332;6.778;2023-11-21T06:49:55;11.50;99.90
921;DHT22;447;51.332;6.778;2023-11-21T06:52:21;11.50;99.90
921;DHT22;447;51.332;6.778;2023-11-21T06:54:48;11.50;99.90
921;DHT22;447;51.332;6.778;2023-11-21T06:57:15;11.50;99.90
921;DHT22;447;51.332;6.778;2023-11-21T06:59:41;11.50;99.90
921;DHT22;447;51.332;6.778;2023-11-21T07:02:08;11.60;99.90
921;DHT22;447;51.332;6.778;2023-11-21T07:04:35;11.60;99.90
921;DHT22;447;51.332;6.778;2023-11-21T07:07:05;11.50;99.90
921;DHT22;447;51.332;6.778;2023-11-21T07:09:33;11.50;99.90
921;DHT22;447;51.332;6.778;2023-11-21T07:12:06;11.60;99.90
921;DHT22;447;51.332;6.778;2023-11-21T07:14:35;11.60;99.90
921;DHT22;447;51.332;6.778;2023-11-21T07:17:06;11.60;99.90
921;DHT22;447;51.332;6.778;2023-11-21T07:19:32;11.60;99.90
921;DHT22;447;51.332;6.778;2023-11-21T07:21:58;11.60;99.90
921;DHT22;447;51.332;6.778;2023-11-21T07:24:24;11.60;99.90
921;DHT22;447;51.332;6.778;2023-11-21T07:26:52;11.50;99.90
921;DHT22;447;51.332;6.778;2023-11-21T07:29:23;11.60;99.90
921;DHT22;447;51.332;6.778;2023-11-21T07:31:56;11.60;99.90
921;DHT22;447;51.332;6.778;2023-11-21T07:34:22;11.60;99.90
921;DHT22;447;51.332;6.778;2023-11-21T07:36:48;11.60;99.90
921;DHT22;447;51.332;6.778;2023-11-21T07:39:14;11.60;99.90
921;DHT22;447;51.332;6.778;2023-11-21T07:41:42;11.50;99.90
921;DHT22;447;51.332;6.778;2023-11-21T07:44:15;11.50;99.90
921;DHT22;447;51.332;6.778;2023-11-21T07:46:42;11.50;99.90
921;DHT22;447;51.332;6.778;2023-11-21T07:49:08;11.50;99.90
921;DHT22;447;51.332;6.778;2023-11-21T07:51:37;11.50;99.90
921;DHT22;447;51.332;6.778;2023-11-21T07:54:03;11.60;99.90
921;DHT22;447;51.332;6.778;2023-11-21T07:56:29;11.60;99.90
921;DHT22;447;51.332;6.778;2023-11-21T07:58:57;11.60;99.90
921;DHT22;447;51.332;6.778;2023-11-21T08:01:23;11.60;99.90
921;DHT22;447;51.332;6.778;2023-11-21T08:03:50;11.60;99.90
921;DHT22;447;51.332;6.778;2023-11-21T08:06:20;11.50;99.90
921;DHT22;447;51.332;6.778;2023-11-21T08:08:49;11.50;99.90
921;DHT22;447;51.332;6.778;2023-11-21T08:11:15;11.50;99.90
921;DHT22;447;51.332;6.778;2023-11-21T08:13:44;11.50;99.90
921;DHT22;447;51.332;6.778;2023-11-21T08:16:14;11.50;99.90
921;DHT22;447;51.332;6.778;2023-11-21T08:18:40;11.50;99.90
921;DHT22;447;51.332;6.778;2023-11-21T08:21:09;11.60;99.90
921;DHT22;447;51.332;6.778;2023-11-21T08:23:38;11.60;99.90
921;DHT22;447;51.332;6.778;2023-11-21T08:26:07;11.70;99.90
921;DHT22;447;51.332;6.778;2023-11-21T08:28:40;11.60;99.90
921;DHT22;447;51.332;6.778;2023-11-21T08:31:10;11.60;99.90
921;DHT22;447;51.332;6.778;2023-11-21T08:33:39;11.60;99.90
921;DHT22;447;51.332;6.778;2023-11-21T08:36:08;11.60;99.90
921;DHT22;447;51.332;6.778;2023-11-21T08:38:36;11.60;99.90
921;DHT22;447;51.332;6.778;2023-11-21T08:41:07;11.60;99.90
921;DHT22;447;51.332;6.778;2023-11-21T08:43:35;11.60;99.90
921;DHT22;447;51.332;6.778;2023-11-21T08:46:03;11.60;99.90
921;DHT22;447;51.332;6.778;2023-11-21T08:48:29;11.60;99.90
921;DHT22;447;51.332;6.778;2023-11-21T08:50:58;11.60;99.90
921;DHT22;447;51.332;6.778;2023-11-21T08:53:24;11.60;99.90
921;DHT22;447;51.332;6.778;2023-11-21T08:55:53;11.60;99.90
921;DHT22;447;51.332;6.778;2023-11-21T08:58:19;11.60;99.90
921;DHT22;447;51.332;6.778;2023-11-21T09:00:45;11.70;99.90
921;DHT22;447;51.332;6.778;2023-11-21T09:03:13;11.70;99.90
921;DHT22;447;51.332;6.778;2023-11-21T09:05:41;11.60;99.90
921;DHT22;447;51.332;6.778;2023-11-21T09:08:10;11.60;99.90
921;DHT22;447;51.332;6.778;2023-11-21T09:10:36;11.60;99.90
921;DHT22;447;51.332;6.778;2023-11-21T09:13:03;11.60;99.90
921;DHT22;447;51.332;6.778;2023-11-21T09:15:29;11.60;99.90
921;DHT22;447;51.332;6.778;2023-11-21T09:17:55;11.50;99.90
921;DHT22;447;51.332;6.778;2023-11-21T09:20:22;11.50;99.90
921;DHT22;447;51.332;6.778;2023-11-21T09:22:49;11.50;99.90
921;DHT22;447;51.332;6.778;2023-11-21T09:25:16;11.50;99.90
921;DHT22;447;51.332;6.778;2023-11-21T09:27:42;11.50;99.90
921;DHT22;447;51.332;6.778;2023-11-21T09:30:10;11.50;99.90
921;DHT22;447;51.332;6.778;2023-11-21T09:32:42;11.60;99.90
921;DHT22;447;51.332;6.778;2023-11-21T09:35:11;11.60;99.90
921;DHT22;447;51.332;6.778;2023-11-21T09:37:37;11.60;99.90
921;DHT22;447;51.332;6.778;2023-11-21T09:40:09;11.60;99.90
921;DHT22;447;51.332;6.778;2023-11-21T09:43:06;11.60;99.90
921;DHT22;447;51.332;6.778;2023-11-21T09:45:38;11.60;99.90
921;DHT22;447;51.332;6.778;2023-11-21T09:48:05;11.60;99.90
921;DHT22;447;51.332;6.778;2023-11-21T09:50:32;11.60;99.90
921;DHT22;447;51.332;6.778;2023-11-21T09:53:18;11.60;99.90
921;DHT22;447;51.332;6.778;2023-11-21T09:55:51;11.60;99.90
921;DHT22;447;51.332;6.778;2023-11-21T09:58:19;11.60;99.90
921;DHT22;447;51.332;6.778;2023-11-21T10:00:57;11.60;99.90
921;DHT22;447;51.332;6.778;2023-11-21T10:03:24;11.60;99.90
921;DHT22;447;51.332;6.778;2023-11-21T10:05:53;11.60;99.90
921;DHT22;447;51.332;6.778;2023-11-21T10:08:27;11.60;99.90
921;DHT22;447;51.332;6.778;2023-11-21T10:10:56;11.60;99.90
921;DHT22;447;51.332;6.778;2023-11-21T10:13:29;11.60;99.90
921;DHT22;447;51.332;6.778;2023-11-21T10:15:57;11.60;99.90
921;DHT22;447;51.332;6.778;2023-11-21T10:18:23;11.60;99.90
921;DHT22;447;51.332;6.778;2023-11-21T10:20:52;11.60;99.90
921;DHT22;447;51.332;6.778;2023-11-21T10:23:19;11.60;99.90
921;DHT22;447;51.332;6.778;2023-11-21T10:25:46;11.60;99.90
921;DHT22;447;51.332;6.778;2023-11-21T10:28:16;11.60;99.90
921;DHT22;447;51.332;6.778;2023-11-21T10:30:42;11.60;99.90
921;DHT22;447;51.332;6.778;2023-11-21T10:33:09;11.60;99.90
921;DHT22;447;51.332;6.778;2023-11-21T10:35:47;11.60;99.90
921;DHT22;447;51.332;6.778;2023-11-21T10:38:20;11.60;99.90
921;DHT22;447;51.332;6.778;2023-11-21T10:40:49;11.60;99.90
921;DHT22;447;51.332;6.778;2023-11-21T10:43:18;11.60;99.90
921;DHT22;447;51.332;6.778;2023-11-21T10:45:47;11.60;99.90
921;DHT22;447;51.332;6.778;2023-11-21T10:48:14;11.60;99.90
921;DHT22;447;51.332;6.778;2023-11-21T10:50:47;11.60;99.90
921;DHT22;447;51.332;6.778;2023-11-21T10:53:13;11.60;99.90
921;DHT22;447;51.332;6.778;2023-11-21T10:55:39;11.60;99.90
921;DHT22;447;51.332;6.778;2023-11-21T10:58:05;11.60;99.90
921;DHT22;447;51.332;6.778;2023-11-21T11:00:33;11.60;99.90
921;DHT22;447;51.332;6.778;2023-11-21T11:03:00;11.70;99.90
921;DHT22;447;51.332;6.778;2023-11-21T11:05:27;11.70;99.90
921;DHT22;447;51.332;6.778;2023-11-21T11:08:08;11.70;99.90
921;DHT22;447;51.332;6.778;2023-11-21T11:10:36;11.70;99.90
921;DHT22;447;51.332;6.778;2023-11-21T11:13:03;11.80;99.90
921;DHT22;447;51.332;6.778;2023-11-21T11:15:30;11.90;99.90
921;DHT22;447;51.332;6.778;2023-11-21T11:18:01;11.90;99.90
921;DHT22;447;51.332;6.778;2023-11-21T11:20:38;11.90;99.90
921;DHT22;447;51.332;6.778;2023-11-21T11:28:53;11.80;99.90
921;DHT22;447;51.332;6.778;2023-11-21T11:31:36;11.80;99.90
921;DHT22;447;51.332;6.778;2023-11-21T11:37:02;11.80;99.90
921;DHT22;447;51.332;6.778;2023-11-21T11:39:40;11.80;99.90
921;DHT22;447;51.332;6.778;2023-11-21T11:42:16;11.70;99.90
921;DHT22;447;51.332;6.778;2023-11-21T11:47:28;11.70;99.90
921;DHT22;447;51.332;6.778;2023-11-21T11:55:16;11.70;99.90
921;DHT22;447;51.332;6.778;2023-11-21T11:58:10;11.70;99.90
921;DHT22;447;51.332;6.778;2023-11-21T12:01:06;11.80;99.90
921;DHT22;447;51.332;6.778;2023-11-21T12:03:32;11.80;99.90
921;DHT22;447;51.332;6.778;2023-11-21T12:06:00;11.80;99.90
921;DHT22;447;51.332;6.778;2023-11-21T12:08:28;11.80;99.90
921;DHT22;447;51.332;6.778;2023-11-21T12:10:57;11.80;99.90
921;DHT22;447;51.332;6.778;2023-11-21T12:13:24;11.80;99.90
921;DHT22;447;51.332;6.778;2023-11-21T12:15:52;11.80;99.90
921;DHT22;447;51.332;6.778;2023-11-21T12:18:21;11.80;99.90
921;DHT22;447;51.332;6.778;2023-11-21T12:20:49;11.80;99.90
921;DHT22;447;51.332;6.778;2023-11-21T12:23:19;11.80;99.90
921;DHT22;447;51.332;6.778;2023-11-21T12:25:46;11.80;99.90
921;DHT22;447;51.332;6.778;2023-11-21T12:28:12;11.80;99.90
921;DHT22;447;51.332;6.778;2023-11-21T12:30:39;11.80;99.90
921;DHT22;447;51.332;6.778;2023-11-21T12:33:05;11.80;99.90
921;DHT22;447;51.332;6.778;2023-11-21T12:35:34;11.80;99.90
921;DHT22;447;51.332;6.778;2023-11-21T12:38:02;11.80;99.90
921;DHT22;447;51.332;6.778;2023-11-21T12:40:29;11.90;99.90
921;DHT22;447;51.332;6.778;2023-11-21T12:42:58;11.90;99.90
921;DHT22;447;51.332;6.778;2023-11-21T12:45:26;11.90;99.90
921;DHT22;447;51.332;6.778;2023-11-21T12:48:03;11.90;99.90
921;DHT22;447;51.332;6.778;2023-11-21T12:50:34;11.90;99.90
921;DHT22;447;51.332;6.778;2023-11-21T12:55:34;11.90;99.90
921;DHT22;447;51.332;6.778;2023-11-21T12:58:04;11.90;99.90
921;DHT22;447;51.332;6.778;2023-11-21T13:00:48;11.90;99.90
921;DHT22;447;51.332;6.778;2023-11-21T13:03:16;11.90;99.90
921;DHT22;447;51.332;6.778;2023-11-21T13:05:50;11.90;99.90
921;DHT22;447;51.332;6.778;2023-11-21T13:08:17;11.90;99.90
921;DHT22;447;51.332;6.778;2023-11-21T13:10:49;11.90;99.90
921;DHT22;447;51.332;6.778;2023-11-21T13:13:24;11.90;99.90
921;DHT22;447;51.332;6.778;2023-11-21T13:16:01;11.90;99.90
921;DHT22;447;51.332;6.778;2023-11-21T13:18:32;11.90;99.90
921;DHT22;447;51.332;6.778;2023-11-21T13:21:02;11.90;99.90
921;DHT22;447;51.332;6.778;2023-11-21T13:23:35;11.90;99.90
921;DHT22;447;51.332;6.778;2023-11-21T13:26:07;12.00;99.90
921;DHT22;447;51.332;6.778;2023-11-21T13:28:35;12.00;99.90
921;DHT22;447;51.332;6.778;2023-11-21T13:31:04;11.90;99.90
921;DHT22;447;51.332;6.778;2023-11-21T13:33:52;12.00;99.90
921;DHT22;447;51.332;6.778;2023-11-21T13:36:24;12.00;99.90
921;DHT22;447;51.332;6.778;2023-11-21T13:38:51;12.00;99.90
921;DHT22;447;51.332;6.778;2023-11-21T13:41:20;12.00;99.90
921;DHT22;447;51.332;6.778;2023-11-21T13:43:53;12.00;99.90
921;DHT22;447;51.332;6.778;2023-11-21T13:46:29;12.00;99.90
921;DHT22;447;51.332;6.778;2023-11-21T13:49:03;12.00;99.90
921;DHT22;447;51.332;6.778;2023-11-21T13:51:29;12.00;99.90
921;DHT22;447;51.332;6.778;2023-11-21T13:54:03;12.00;99.90
921;DHT22;447;51.332;6.778;2023-11-21T13:56:37;12.00;99.90
921;DHT22;447;51.332;6.778;2023-11-21T13:59:04;12.00;99.90
921;DHT22;447;51.332;6.778;2023-11-21T14:01:46;12.00;99.90
921;DHT22;447;51.332;6.778;2023-11-21T14:04:22;12.10;99.90
921;DHT22;447;51.332;6.778;2023-11-21T14:07:15;12.00;99.90
921;DHT22;447;51.332;6.778;2023-11-21T14:10:02;12.10;99.90
921;DHT22;447;51.332;6.778;2023-11-21T14:12:29;12.10;99.90
921;DHT22;447;51.332;6.778;2023-11-21T14:15:00;12.10;99.90
921;DHT22;447;51.332;6.778;2023-11-21T14:17:28;12.10;99.90
921;DHT22;447;51.332;6.778;2023-11-21T14:19:54;12.10;99.90
921;DHT22;447;51.332;6.778;2023-11-21T14:22:22;12.20;99.90
921;DHT22;447;51.332;6.778;2023-11-21T14:24:47;12.20;99.90
921;DHT22;447;51.332;6.778;2023-11-21T14:27:19;12.10;99.90
921;DHT22;447;51.332;6.778;2023-11-21T14:29:47;12.10;99.90
921;DHT22;447;51.332;6.778;2023-11-21T14:32:14;12.10;99.90
921;DHT22;447;51.332;6.778;2023-11-21T14:34:41;12.10;99.90
921;DHT22;447;51.332;6.778;2023-11-21T14:37:14;12.10;99.90
921;DHT22;447;51.332;6.778;2023-11-21T14:39:43;12.10;99.90
921;DHT22;447;51.332;6.778;2023-11-21T14:42:15;12.20;99.90
921;DHT22;447;51.332;6.778;2023-11-21T14:44:41;12.10;99.90
921;DHT22;447;51.332;6.778;2023-11-21T14:47:11;12.10;99.90
921;DHT22;447;51.332;6.778;2023-11-21T14:49:50;12.10;99.90
921;DHT22;447;51.332;6.778;2023-11-21T14:52:22;12.10;99.90
921;DHT22;447;51.332;6.778;2023-11-21T14:54:59;12.10;99.90
921;DHT22;447;51.332;6.778;2023-11-21T14:57:45;12.00;99.90
921;DHT22;447;51.332;6.778;2023-11-21T15:00:19;12.00;99.90
921;DHT22;447;51.332;6.778;2023-11-21T15:03:05;12.00;99.90
921;DHT22;447;51.332;6.778;2023-11-21T15:05:32;12.10;99.90
921;DHT22;447;51.332;6.778;2023-11-21T15:08:05;12.10;99.90
921;DHT22;447;51.332;6.778;2023-11-21T15:10:46;12.10;99.90
921;DHT22;447;51.332;6.778;2023-11-21T15:13:15;12.00;99.90
921;DHT22;447;51.332;6.778;2023-11-21T15:15:44;12.00;99.90
921;DHT22;447;51.332;6.778;2023-11-21T15:18:13;12.00;99.90
921;DHT22;447;51.332;6.778;2023-11-21T15:20:42;12.00;99.90
921;DHT22;447;51.332;6.778;2023-11-21T15:23:09;12.00;99.90
921;DHT22;447;51.332;6.778;2023-11-21T15:25:39;12.00;99.90
921;DHT22;447;51.332;6.778;2023-11-21T15:28:07;12.00;99.90
921;DHT22;447;51.332;6.778;2023-11-21T15:30:33;12.00;99.90
921;DHT22;447;51.332;6.778;2023-11-21T15:33:02;12.10;99.90
921;DHT22;447;51.332;6.778;2023-11-21T15:35:33;12.10;99.90
921;DHT22;447;51.332;6.778;2023-11-21T15:38:03;12.10;99.90
921;DHT22;447;51.332;6.778;2023-11-21T15:40:36;12.10;99.90
921;DHT22;447;51.332;6.778;2023-11-21T15:43:05;12.10;99.90
921;DHT22;447;51.332;6.778;2023-11-21T15:45:32;12.10;99.90
921;DHT22;447;51.332;6.778;2023-11-21T15:47:58;12.10;99.90
921;DHT22;447;51.332;6.778;2023-11-21T15:50:30;12.00;99.90
921;DHT22;447;51.332;6.778;2023-11-21T15:52:57;12.00;99.90
921;DHT22;447;51.332;6.778;2023-11-21T15:55:27;12.00;99.90
921;DHT22;447;51.332;6.778;2023-11-21T15:58:02;12.00;99.90
921;DHT22;447;51.332;6.778;2023-11-21T16:00:30;12.10;99.90
921;DHT22;447;51.332;6.778;2023-11-21T16:03:01;12.00;99.90
921;DHT22;447;51.332;6.778;2023-11-21T16:05:27;12.00;99.90
921;DHT22;447;51.332;6.778;2023-11-21T16:07:57;12.00;99.90
921;DHT22;447;51.332;6.778;2023-11-21T16:10:23;12.00;99.90
921;DHT22;447;51.332;6.778;2023-11-21T16:12:50;12.10;99.90
921;DHT22;447;51.332;6.778;2023-11-21T16:15:18;12.20;99.90
921;DHT22;447;51.332;6.778;2023-11-21T16:17:47;12.20;99.90
921;DHT22;447;51.332;6.778;2023-11-21T16:20:15;12.20;99.90
921;DHT22;447;51.332;6.778;2023-11-21T16:22:43;12.20;99.90
921;DHT22;447;51.332;6.778;2023-11-21T16:25:11;12.20;99.90
921;DHT22;447;51.332;6.778;2023-11-21T16:27:40;12.10;99.90
921;DHT22;447;51.332;6.778;2023-11-21T16:30:07;12.10;99.90
921;DHT22;447;51.332;6.778;2023-11-21T16:32:37;12.10;99.90
921;DHT22;447;51.332;6.778;2023-11-21T16:35:08;12.10;99.90
921;DHT22;447;51.332;6.778;2023-11-21T16:37:37;12.10;99.90
921;DHT22;447;51.332;6.778;2023-11-21T16:40:04;12.10;99.90
921;DHT22;447;51.332;6.778;2023-11-21T16:42:38;12.00;99.90
921;DHT22;447;51.332;6.778;2023-11-21T16:45:09;12.00;99.90
921;DHT22;447;51.332;6.778;2023-11-21T16:47:37;12.00;99.90
921;DHT22;447;51.332;6.778;2023-11-21T16:50:06;12.00;99.90
921;DHT22;447;51.332;6.778;2023-11-21T16:52:32;12.00;99.90
921;DHT22;447;51.332;6.778;2023-11-21T16:54:58;12.00;99.90
921;DHT22;447;51.332;6.778;2023-11-21T16:57:26;12.00;99.90
921;DHT22;447;51.332;6.778;2023-11-21T16:59:53;12.00;99.90
921;DHT22;447;51.332;6.778;2023-11-21T17:02:20;12.00;99.90
921;DHT22;447;51.332;6.778;2023-11-21T17:04:49;12.00;99.90